Wolthusen — V2AK7 — position and weather

sailwx.info

Track history (hours):
 
Tides and Currents Weather Stations Pressure Air Temp Water Temp Dewpoint Dewpoint Depression Visibility Wind Speed Wind Dir Waves Ship Positions

Wolthusen

Last reported at 2014-Jun-18 04:33 UTC. Time now 2014-Dec-19 15:46 UTC.
Position N 57°03' E 009°56'.
Warning: this ship's position is months out of date.

Length 90 m; draft 4 m.

Type: Cargo ship. MMSI: 304010620.

Date/timePositionNaut miles runAvg speedWind from/ knotsBaromVisibWave heightAir tempDewpointWater temp
2014-Jun-18 04:33N 57°03' E 009°56'0 0.0
2014-Jun-18 03:33N 57°03' E 009°56'0 0.0
2014-Jun-18 02:27N 57°03' E 009°56'0 0.0
2014-Jun-18 01:33N 57°03' E 009°56'0 0.0
2014-Jun-18 00:30N 57°03' E 009°56'0 0.0
2014-Jun-16 06:30N 57°03' E 009°56'0 0.0
2014-Jun-16 05:33N 57°03' E 009°56'0 0.0
2014-Jun-16 04:30N 57°03' E 009°56'0 0.0
2014-Jun-16 03:06N 57°03' E 009°56'0 0.0
2014-Jun-16 01:33N 57°03' E 009°56'0 0.0
2014-Jun-15 23:24N 57°03' E 009°56'0 0.0
2014-Jun-15 06:15N 57°03' E 009°56'0 0.0
2014-Jun-15 05:27N 57°03' E 009°56'0 0.0
2014-Jun-15 03:27N 57°03' E 009°56'0 0.0
2014-Jun-15 00:33N 57°03' E 009°56'0 0.0
2014-Jun-14 23:33N 57°03' E 009°56'0 0.0
2014-Jun-14 21:27N 57°03' E 009°56'0 0.0
2014-Jun-13 23:09N 57°03' E 009°56'  
2014-Jun-10 23:33N 56°10' E 011°14'1110.7
2014-Jun-10 22:33N 56°19' E 011°25'1111.0
2014-Jun-10 21:32N 56°29' E 011°34'1110.9
2014-Jun-10 20:31N 56°38' E 011°45'1010.5
2014-Jun-10 19:33N 56°48' E 011°50'1111.4
2014-Jun-10 18:33N 56°59' E 011°43'1110.9
2014-Jun-10 17:33N 57°09' E 011°39'1211.5
2014-Jun-10 16:33N 57°21' E 011°38'1211.6
2014-Jun-10 15:33N 57°32' E 011°38'10 9.7
2014-Jun-10 14:33N 57°41' E 011°47'1 0.7
2014-Jun-10 13:32N 57°42' E 011°48'0 0.0
2014-Jun-10 12:32N 57°42' E 011°48'0 0.0
2014-Jun-10 11:32N 57°42' E 011°48'0 0.0
2014-Jun-10 10:32N 57°42' E 011°48'0 0.0
2014-Jun-10 09:32N 57°42' E 011°48'0 0.0
2014-Jun-10 08:32N 57°42' E 011°48'0 0.0
2014-Jun-10 07:32N 57°42' E 011°48'0 0.0
2014-Jun-10 06:32N 57°42' E 011°48'0 0.0
2014-Jun-10 03:32N 57°42' E 011°48'0 0.0
2014-Jun-10 02:32N 57°42' E 011°48'0 0.0
2014-Jun-10 01:32N 57°42' E 011°48'0 0.0
2014-Jun-10 00:32N 57°42' E 011°48'0 0.0
2014-Jun-09 23:32N 57°42' E 011°48'0 0.0
2014-Jun-09 22:32N 57°42' E 011°48'0 0.0
2014-Jun-09 21:32N 57°42' E 011°48'0 0.0
2014-Jun-09 20:32N 57°42' E 011°48'0 0.0
2014-Jun-09 19:33N 57°42' E 011°48'7 6.8
2014-Jun-09 18:34N 57°36' E 011°40'1211.8
2014-Jun-09 17:34N 57°25' E 011°40'1211.9
2014-Jun-09 16:33N 57°12' E 011°41'1212.0
2014-Jun-09 15:33N 57°01' E 011°45'1111.5
2014-Jun-09 14:34N 56°50' E 011°50'1211.9
2014-Jun-09 13:32N 56°38' E 011°46'1312.3
2014-Jun-09 12:30N 56°27' E 011°34'1712.2
2014-Jun-09 11:06N 56°12' E 011°19'712.3
2014-Jun-09 10:32N 56°06' E 011°12'5011.4
2014-Jun-09 06:07N 55°40' E 009°56'1111.1
2014-Jun-09 05:09N 55°42' E 009°37'  
Track history (hours):
 
Tides and Currents Weather Stations Pressure Air Temp Water Temp Dewpoint Dewpoint Depression Visibility Wind Speed Wind Dir Waves Ship Positions

Wolthusen

Last reported at 2014-Jun-18 04:33 UTC. Time now 2014-Dec-19 15:46 UTC.
Position N 57°03' E 009°56'.
Warning: this ship's position is months out of date.

Length 90 m; draft 4 m.

Type: Cargo ship. MMSI: 304010620.

Date/timePositionNaut miles runAvg speedWind from/ knotsBaromVisibWave heightAir tempDewpointWater temp
2014-Jun-18 04:33N 57°03' E 009°56'0 0.0
2014-Jun-18 03:33N 57°03' E 009°56'0 0.0
2014-Jun-18 02:27N 57°03' E 009°56'0 0.0
2014-Jun-18 01:33N 57°03' E 009°56'0 0.0
2014-Jun-18 00:30N 57°03' E 009°56'0 0.0
2014-Jun-16 06:30N 57°03' E 009°56'0 0.0
2014-Jun-16 05:33N 57°03' E 009°56'0 0.0
2014-Jun-16 04:30N 57°03' E 009°56'0 0.0
2014-Jun-16 03:06N 57°03' E 009°56'0 0.0
2014-Jun-16 01:33N 57°03' E 009°56'0 0.0
2014-Jun-15 23:24N 57°03' E 009°56'0 0.0
2014-Jun-15 06:15N 57°03' E 009°56'0 0.0
2014-Jun-15 05:27N 57°03' E 009°56'0 0.0
2014-Jun-15 03:27N 57°03' E 009°56'0 0.0
2014-Jun-15 00:33N 57°03' E 009°56'0 0.0
2014-Jun-14 23:33N 57°03' E 009°56'0 0.0
2014-Jun-14 21:27N 57°03' E 009°56'0 0.0
2014-Jun-13 23:09N 57°03' E 009°56'  
2014-Jun-10 23:33N 56°10' E 011°14'1110.7
2014-Jun-10 22:33N 56°19' E 011°25'1111.0
2014-Jun-10 21:32N 56°29' E 011°34'1110.9
2014-Jun-10 20:31N 56°38' E 011°45'1010.5
2014-Jun-10 19:33N 56°48' E 011°50'1111.4
2014-Jun-10 18:33N 56°59' E 011°43'1110.9
2014-Jun-10 17:33N 57°09' E 011°39'1211.5
2014-Jun-10 16:33N 57°21' E 011°38'1211.6
2014-Jun-10 15:33N 57°32' E 011°38'10 9.7
2014-Jun-10 14:33N 57°41' E 011°47'1 0.7
2014-Jun-10 13:32N 57°42' E 011°48'0 0.0
2014-Jun-10 12:32N 57°42' E 011°48'0 0.0
2014-Jun-10 11:32N 57°42' E 011°48'0 0.0
2014-Jun-10 10:32N 57°42' E 011°48'0 0.0
2014-Jun-10 09:32N 57°42' E 011°48'0 0.0
2014-Jun-10 08:32N 57°42' E 011°48'0 0.0
2014-Jun-10 07:32N 57°42' E 011°48'0 0.0
2014-Jun-10 06:32N 57°42' E 011°48'0 0.0
2014-Jun-10 03:32N 57°42' E 011°48'0 0.0
2014-Jun-10 02:32N 57°42' E 011°48'0 0.0
2014-Jun-10 01:32N 57°42' E 011°48'0 0.0
2014-Jun-10 00:32N 57°42' E 011°48'0 0.0
2014-Jun-09 23:32N 57°42' E 011°48'0 0.0
2014-Jun-09 22:32N 57°42' E 011°48'0 0.0
2014-Jun-09 21:32N 57°42' E 011°48'0 0.0
2014-Jun-09 20:32N 57°42' E 011°48'0 0.0
2014-Jun-09 19:33N 57°42' E 011°48'7 6.8
2014-Jun-09 18:34N 57°36' E 011°40'1211.8
2014-Jun-09 17:34N 57°25' E 011°40'1211.9
2014-Jun-09 16:33N 57°12' E 011°41'1212.0
2014-Jun-09 15:33N 57°01' E 011°45'1111.5
2014-Jun-09 14:34N 56°50' E 011°50'1211.9
2014-Jun-09 13:32N 56°38' E 011°46'1312.3
2014-Jun-09 12:30N 56°27' E 011°34'1712.2
2014-Jun-09 11:06N 56°12' E 011°19'712.3
2014-Jun-09 10:32N 56°06' E 011°12'5011.4
2014-Jun-09 06:07N 55°40' E 009°56'1111.1
2014-Jun-09 05:09N 55°42' E 009°37'  

Dump ship's entire track history